Time;durP1;ratioP1;P1;durP2;ratioP2;P2;SDS_P1;SDS_P2;PMS_P1;PMS_P2;Temp;Humidity;BMP_temperature;BMP_pressure;BME280_temperature;BME280_humidity;BME280_pressure;Samples;Min_cycle;Max_cycle;Signal;HPM_P1;HPM_P2
2021/04/19 00:00:48;;;;;;;17.65;12.02;;;;;;;;;;4933855;29;20110;-67
2021/04/19 00:03:14;;;;;;;13.68;10.43;;;;;;;;;;4934342;29;20107;-68
2021/04/19 00:05:41;;;;;;;18.50;10.70;;;;;;;;;;4931963;29;20361;-68
2021/04/19 00:08:07;;;;;;;18.35;11.23;;;;;;;;;;4917216;29;20056;-68
2021/04/19 00:10:33;;;;;;;16.02;11.45;;;;;;;;;;4932580;29;20064;-68
2021/04/19 00:12:59;;;;;;;17.15;10.80;;;;;;;;;;4917171;29;20056;-68
2021/04/19 00:15:27;;;;;;;15.45;10.75;;;;;;;;;;4932053;29;20052;-68
2021/04/19 00:17:53;;;;;;;17.13;11.82;;;;;;;;;;4932824;29;20143;-68
2021/04/19 00:20:20;;;;;;;19.25;11.50;;;;;;;;;;4939469;29;20055;-67
2021/04/19 00:22:46;;;;;;;14.77;10.52;;;;;;;;;;4952393;29;20400;-67
2021/04/19 00:25:12;;;;;;;18.15;10.93;;;;;;;;;;4953850;29;20485;-67
2021/04/19 00:27:39;;;;;;;17.27;11.27;;;;;;;;;;4953111;29;20216;-67
2021/04/19 00:30:06;;;;;;;16.95;10.68;;;;;;;;;;4952317;29;20569;-67
2021/04/19 00:32:32;;;;;;;16.00;11.10;;;;;;;;;;4935652;29;20094;-67
2021/04/19 00:34:58;;;;;;;16.58;11.07;;;;;;;;;;4936067;29;20081;-67
2021/04/19 00:37:24;;;;;;;17.83;11.20;;;;;;;;;;4955122;29;20098;-68
2021/04/19 00:39:50;;;;;;;17.40;11.57;;;;;;;;;;4956248;29;20055;-67
2021/04/19 00:42:16;;;;;;;17.15;11.55;;;;;;;;;;4939359;29;20051;-67
2021/04/19 00:44:44;;;;;;;18.17;11.27;;;;;;;;;;4954893;29;20088;-67
2021/04/19 00:47:12;;;;;;;16.70;11.90;;;;;;;;;;4953534;29;20499;-67
2021/04/19 00:49:41;;;;;;;16.88;12.52;;;;;;;;;;4949053;29;20048;-68
2021/04/19 00:52:08;;;;;;;18.17;11.93;;;;;;;;;;4920449;29;20058;-68
2021/04/19 00:54:35;;;;;;;22.60;13.38;;;;;;;;;;4919965;29;20059;-67
2021/04/19 00:57:01;;;;;;;16.10;11.80;;;;;;;;;;4919428;29;20060;-68
2021/04/19 00:59:27;;;;;;;16.42;11.27;;;;;;;;;;4920721;29;20463;-67
2021/04/19 01:01:53;;;;;;;19.65;12.98;;;;;;;;;;4937908;29;20055;-67
2021/04/19 01:04:19;;;;;;;17.88;11.95;;;;;;;;;;4919947;29;20067;-67
2021/04/19 01:06:46;;;;;;;18.15;12.07;;;;;;;;;;4934505;29;20103;-67
2021/04/19 01:09:12;;;;;;;20.40;12.70;;;;;;;;;;4919661;29;20138;-67
2021/04/19 01:11:38;;;;;;;19.00;12.88;;;;;;;;;;4919510;29;20056;-67
2021/04/19 01:14:04;;;;;;;18.60;12.18;;;;;;;;;;4936572;29;20087;-67
2021/04/19 01:16:30;;;;;;;17.75;12.98;;;;;;;;;;4946790;29;20051;-67
2021/04/19 01:18:56;;;;;;;16.98;12.65;;;;;;;;;;4955659;29;20069;-67
2021/04/19 01:21:23;;;;;;;18.98;12.65;;;;;;;;;;4955470;29;20051;-67
2021/04/19 01:23:49;;;;;;;17.52;11.90;;;;;;;;;;4955506;29;20487;-67
2021/04/19 01:26:15;;;;;;;18.35;12.18;;;;;;;;;;4954964;29;20410;-68
2021/04/19 01:28:49;;;;;;;17.20;11.75;;;;;;;;;;4939363;29;20403;-67
2021/04/19 01:31:15;;;;;;;17.45;11.93;;;;;;;;;;4941696;29;20059;-66
2021/04/19 01:33:42;;;;;;;15.68;10.82;;;;;;;;;;4919427;29;20147;-67
2021/04/19 01:36:09;;;;;;;15.65;11.73;;;;;;;;;;4934421;29;20126;-67
2021/04/19 01:38:35;;;;;;;16.35;11.38;;;;;;;;;;4919040;29;20491;-67
2021/04/19 01:41:02;;;;;;;18.42;12.02;;;;;;;;;;4919094;29;20442;-67
2021/04/19 01:43:29;;;;;;;15.65;11.68;;;;;;;;;;4934970;29;20495;-67
2021/04/19 01:45:55;;;;;;;15.63;11.60;;;;;;;;;;4918188;29;20203;-67
2021/04/19 01:48:22;;;;;;;15.52;12.25;;;;;;;;;;4934004;29;20115;-67
2021/04/19 01:50:50;;;;;;;16.35;11.52;;;;;;;;;;4934636;29;20051;-67
2021/04/19 01:53:16;;;;;;;17.63;12.30;;;;;;;;;;4946322;29;20126;-67
2021/04/19 01:55:42;;;;;;;19.65;11.75;;;;;;;;;;4953097;29;20252;-67
2021/04/19 01:58:15;;;;;;;18.38;12.75;;;;;;;;;;4953778;29;20055;-67
2021/04/19 02:00:42;;;;;;;17.67;11.73;;;;;;;;;;4937139;29;20052;-66
2021/04/19 02:03:36;;;;;;;18.83;12.40;;;;;;;;;;4934336;29;20051;-67
2021/04/19 02:06:05;;;;;;;18.27;12.18;;;;;;;;;;4933797;29;20494;-67
2021/04/19 02:08:41;;;;;;;19.90;12.23;;;;;;;;;;4935485;29;20115;-67
2021/04/19 02:11:32;;;;;;;19.02;13.15;;;;;;;;;;4935295;29;20055;-67
2021/04/19 02:14:04;;;;;;;17.17;12.27;;;;;;;;;;4952487;29;20081;-67
2021/04/19 02:16:51;;;;;;;18.83;12.70;;;;;;;;;;4952721;29;20095;-67
2021/04/19 02:19:42;;;;;;;23.05;12.35;;;;;;;;;;4953145;29;20055;-66
2021/04/19 02:22:19;;;;;;;19.45;12.55;;;;;;;;;;4953295;29;20095;-67
2021/04/19 02:24:47;;;;;;;17.45;13.18;;;;;;;;;;4954213;29;20633;-67
2021/04/19 02:27:26;;;;;;;18.00;12.77;;;;;;;;;;4936642;29;20125;-67
2021/04/19 02:29:52;;;;;;;19.90;12.80;;;;;;;;;;4937334;29;20469;-67
2021/04/19 02:32:25;;;;;;;16.92;12.50;;;;;;;;;;4953125;29;20051;-67
2021/04/19 02:34:53;;;;;;;20.67;13.23;;;;;;;;;;4937254;29;20080;-67
2021/04/19 02:37:20;;;;;;;16.73;12.50;;;;;;;;;;4936538;29;20051;-67
2021/04/19 02:39:48;;;;;;;19.00;13.15;;;;;;;;;;4921755;29;20056;-67
2021/04/19 02:42:15;;;;;;;17.13;12.63;;;;;;;;;;4918351;29;20083;-67
2021/04/19 02:44:45;;;;;;;20.13;12.85;;;;;;;;;;4917949;29;20119;-66
2021/04/19 02:47:11;;;;;;;17.48;12.95;;;;;;;;;;4917790;29;20052;-67
2021/04/19 02:49:37;;;;;;;15.73;12.00;;;;;;;;;;4902013;29;20427;-68
2021/04/19 02:52:05;;;;;;;16.20;12.15;;;;;;;;;;4908344;29;20560;-67
2021/04/19 02:54:32;;;;;;;19.52;13.75;;;;;;;;;;4952614;29;20098;-67
2021/04/19 02:56:58;;;;;;;20.73;12.95;;;;;;;;;;4952143;29;20058;-67
2021/04/19 02:59:25;;;;;;;17.83;13.13;;;;;;;;;;4951900;28;20142;-67
2021/04/19 03:01:59;;;;;;;18.52;12.70;;;;;;;;;;4952604;29;20474;-67
2021/04/19 03:04:26;;;;;;;16.40;12.77;;;;;;;;;;4936678;29;20122;-67
2021/04/19 03:06:54;;;;;;;17.15;12.05;;;;;;;;;;4935857;29;20055;-67
2021/04/19 03:09:22;;;;;;;17.33;12.73;;;;;;;;;;4932789;29;20055;-68
2021/04/19 03:11:51;;;;;;;18.13;12.95;;;;;;;;;;4918085;29;20110;-67
2021/04/19 03:14:17;;;;;;;19.17;12.63;;;;;;;;;;4902205;29;20495;-67
2021/04/19 03:16:48;;;;;;;19.00;13.60;;;;;;;;;;4933637;29;20117;-67
2021/04/19 03:19:17;;;;;;;24.73;12.95;;;;;;;;;;4918159;29;20111;-67
2021/04/19 03:21:43;;;;;;;19.88;13.27;;;;;;;;;;4901869;29;20058;-67
2021/04/19 03:24:09;;;;;;;19.67;13.35;;;;;;;;;;4917638;29;20094;-67
2021/04/19 03:26:36;;;;;;;17.65;12.73;;;;;;;;;;4901140;29;20051;-67
2021/04/19 03:29:02;;;;;;;20.08;12.75;;;;;;;;;;4898757;29;20059;-67
2021/04/19 03:31:41;;;;;;;20.25;12.70;;;;;;;;;;4917058;29;20052;-67
2021/04/19 03:34:12;;;;;;;17.70;12.77;;;;;;;;;;4916970;29;20052;-67
2021/04/19 03:36:38;;;;;;;18.95;12.30;;;;;;;;;;4901274;29;20550;-67
2021/04/19 03:39:04;;;;;;;19.45;13.45;;;;;;;;;;4901785;29;20056;-67
2021/04/19 03:41:32;;;;;;;17.63;13.27;;;;;;;;;;4901533;29;20623;-67
2021/04/19 03:43:59;;;;;;;20.38;12.95;;;;;;;;;;4917303;29;20056;-67
2021/04/19 03:46:25;;;;;;;24.90;14.55;;;;;;;;;;4901072;29;20495;-67
2021/04/19 03:49:05;;;;;;;16.38;12.65;;;;;;;;;;4902034;29;20134;-67
2021/04/19 03:51:32;;;;;;;18.38;13.55;;;;;;;;;;4902853;29;20503;-67
2021/04/19 03:53:58;;;;;;;20.73;13.00;;;;;;;;;;4901723;29;20052;-67
2021/04/19 03:56:25;;;;;;;20.52;13.25;;;;;;;;;;4901216;29;20185;-67
2021/04/19 03:58:51;;;;;;;19.83;12.90;;;;;;;;;;4901520;29;20059;-67
2021/04/19 04:01:18;;;;;;;18.98;12.82;;;;;;;;;;4901495;29;20463;-67
2021/04/19 04:03:44;;;;;;;17.13;12.73;;;;;;;;;;4901532;29;20058;-67
2021/04/19 04:06:11;;;;;;;18.55;13.40;;;;;;;;;;4900896;29;20114;-67
2021/04/19 04:08:37;;;;;;;19.95;13.57;;;;;;;;;;4901453;29;20111;-67
2021/04/19 04:11:03;;;;;;;24.45;13.15;;;;;;;;;;4935114;29;20134;-67
2021/04/19 04:13:29;;;;;;;17.52;13.15;;;;;;;;;;4936319;29;20483;-66
2021/04/19 04:15:57;;;;;;;20.17;14.38;;;;;;;;;;4935816;29;20090;-67
2021/04/19 04:18:23;;;;;;;19.27;12.70;;;;;;;;;;4936181;29;20056;-67
2021/04/19 04:20:50;;;;;;;19.80;12.63;;;;;;;;;;4937689;29;20056;-67
2021/04/19 04:23:16;;;;;;;22.80;13.60;;;;;;;;;;4920478;29;20051;-67
2021/04/19 04:25:43;;;;;;;19.90;12.90;;;;;;;;;;4935520;29;20107;-67
2021/04/19 04:28:09;;;;;;;16.48;12.85;;;;;;;;;;4936387;29;20075;-67
2021/04/19 04:30:35;;;;;;;18.60;13.45;;;;;;;;;;4936208;29;20463;-67
2021/04/19 04:33:03;;;;;;;21.45;13.05;;;;;;;;;;4920633;29;20056;-67
2021/04/19 04:35:30;;;;;;;21.83;13.73;;;;;;;;;;4919553;29;20499;-68
2021/04/19 04:37:57;;;;;;;18.30;12.18;;;;;;;;;;4936310;29;20420;-67
2021/04/19 04:40:31;;;;;;;19.00;12.55;;;;;;;;;;4959949;23;20087;-67
2021/04/19 04:43:21;;;;;;;17.38;13.20;;;;;;;;;;4936601;29;20052;-67
2021/04/19 04:45:48;;;;;;;15.48;12.30;;;;;;;;;;4936314;29;20082;-67
2021/04/19 04:48:22;;;;;;;16.98;12.90;;;;;;;;;;4936010;29;20503;-67
2021/04/19 04:50:52;;;;;;;19.05;13.30;;;;;;;;;;4919205;29;20052;-66
2021/04/19 04:53:52;;;;;;;18.15;12.95;;;;;;;;;;4886188;29;20099;-66
2021/04/19 04:56:19;;;;;;;20.55;12.75;;;;;;;;;;4896835;29;20503;-67
2021/04/19 04:58:45;;;;;;;20.40;13.07;;;;;;;;;;4885998;29;20083;-67
2021/04/19 05:01:11;;;;;;;19.05;12.68;;;;;;;;;;4912263;29;20056;-67
2021/04/19 05:03:38;;;;;;;22.58;12.90;;;;;;;;;;4935547;29;20521;-67
2021/04/19 05:06:10;;;;;;;21.75;13.63;;;;;;;;;;4920039;29;20059;-67
2021/04/19 05:08:40;;;;;;;16.80;12.00;;;;;;;;;;4936900;29;20052;-67
2021/04/19 05:11:09;;;;;;;21.15;13.25;;;;;;;;;;4919822;29;20059;-67
2021/04/19 05:13:35;;;;;;;21.90;14.18;;;;;;;;;;4936569;29;20059;-67
2021/04/19 05:16:01;;;;;;;20.58;13.27;;;;;;;;;;4935894;29;20052;-66
2021/04/19 05:18:28;;;;;;;22.23;14.65;;;;;;;;;;4935378;29;20083;-66
2021/04/19 05:20:55;;;;;;;21.70;14.00;;;;;;;;;;4936087;29;20059;-67
2021/04/19 05:23:21;;;;;;;24.40;14.77;;;;;;;;;;4935898;29;20090;-67
2021/04/19 05:25:48;;;;;;;19.48;14.35;;;;;;;;;;4935556;29;20102;-66
2021/04/19 05:28:15;;;;;;;22.48;14.02;;;;;;;;;;4936591;29;20458;-67
2021/04/19 05:30:42;;;;;;;23.73;14.88;;;;;;;;;;4936149;29;20052;-67
2021/04/19 05:33:09;;;;;;;22.70;14.25;;;;;;;;;;4936242;29;20523;-67
2021/04/19 05:35:36;;;;;;;28.73;16.17;;;;;;;;;;4935057;29;20499;-67
2021/04/19 05:38:05;;;;;;;26.35;15.93;;;;;;;;;;4917320;29;20059;-67
2021/04/19 05:40:34;;;;;;;27.48;17.27;;;;;;;;;;4916966;29;20102;-67
2021/04/19 05:43:02;;;;;;;22.50;16.00;;;;;;;;;;4917087;29;20099;-66
2021/04/19 05:45:28;;;;;;;27.58;16.30;;;;;;;;;;4916219;29;20105;-66
2021/04/19 05:47:54;;;;;;;27.80;17.45;;;;;;;;;;4900277;29;20499;-66
2021/04/19 05:50:23;;;;;;;27.90;17.13;;;;;;;;;;4911705;29;20062;-66
2021/04/19 05:52:54;;;;;;;25.92;17.33;;;;;;;;;;4919125;29;20051;-67
2021/04/19 05:55:22;;;;;;;29.52;17.70;;;;;;;;;;4935366;29;20090;-65
2021/04/19 05:58:10;;;;;;;24.50;16.92;;;;;;;;;;4919395;29;20083;-66
2021/04/19 06:00:39;;;;;;;25.75;17.55;;;;;;;;;;4935699;29;20060;-66
2021/04/19 06:03:08;;;;;;;24.58;16.52;;;;;;;;;;4896836;29;20052;-66
2021/04/19 06:05:38;;;;;;;25.13;16.55;;;;;;;;;;4914733;29;20127;-67
2021/04/19 06:08:44;;;;;;;26.02;18.00;;;;;;;;;;4899700;29;20103;-66
2021/04/19 06:11:20;;;;;;;29.58;18.35;;;;;;;;;;4839746;29;20056;-66
2021/04/19 06:13:46;;;;;;;25.02;17.80;;;;;;;;;;4889546;29;20409;-67
2021/04/19 06:16:12;;;;;;;24.73;17.98;;;;;;;;;;4920036;29;20467;-66
2021/04/19 06:18:40;;;;;;;29.77;19.30;;;;;;;;;;4902935;29;20056;-67
2021/04/19 06:21:07;;;;;;;26.95;18.13;;;;;;;;;;4903189;29;20055;-67
2021/04/19 06:23:34;;;;;;;27.73;18.50;;;;;;;;;;4902692;29;20087;-68
2021/04/19 06:26:00;;;;;;;30.85;19.55;;;;;;;;;;4917748;29;20047;-70
2021/04/19 06:28:26;;;;;;;32.50;19.45;;;;;;;;;;4918391;29;20131;-68
2021/04/19 06:31:12;;;;;;;33.40;21.00;;;;;;;;;;4935125;29;20507;-68
2021/04/19 06:33:38;;;;;;;29.50;18.77;;;;;;;;;;4918244;29;20071;-66
2021/04/19 06:36:05;;;;;;;29.05;18.38;;;;;;;;;;4917731;29;20135;-67
2021/04/19 06:38:31;;;;;;;26.35;18.50;;;;;;;;;;4932565;29;20048;-68
2021/04/19 06:40:57;;;;;;;28.65;17.90;;;;;;;;;;4933202;29;20127;-68
2021/04/19 06:43:23;;;;;;;28.40;18.08;;;;;;;;;;4933025;29;20103;-67
2021/04/19 06:45:49;;;;;;;23.00;17.90;;;;;;;;;;4932191;29;20585;-68
2021/04/19 06:48:15;;;;;;;25.85;17.60;;;;;;;;;;4914466;29;20630;-68
2021/04/19 06:50:42;;;;;;;28.08;17.35;;;;;;;;;;4932763;29;20187;-68
2021/04/19 06:53:08;;;;;;;27.05;17.45;;;;;;;;;;4933054;29;20078;-67
2021/04/19 06:55:37;;;;;;;27.27;18.48;;;;;;;;;;4932423;29;20047;-68
2021/04/19 06:58:03;;;;;;;27.42;18.58;;;;;;;;;;4933269;29;20114;-68
2021/04/19 07:00:30;;;;;;;29.20;18.45;;;;;;;;;;4892954;29;20048;-69
2021/04/19 07:03:00;;;;;;;32.50;20.48;;;;;;;;;;4913770;29;20471;-68
2021/04/19 07:05:30;;;;;;;33.05;20.35;;;;;;;;;;4913102;29;20563;-68
2021/04/19 07:08:27;;;;;;;28.98;19.48;;;;;;;;;;4913960;29;20178;-68
2021/04/19 07:11:04;;;;;;;27.30;19.33;;;;;;;;;;4912682;29;20052;-67
2021/04/19 07:13:31;;;;;;;28.85;18.55;;;;;;;;;;4913795;29;20504;-68
2021/04/19 07:15:57;;;;;;;26.88;18.02;;;;;;;;;;4913046;29;20512;-68
2021/04/19 07:18:24;;;;;;;28.63;18.90;;;;;;;;;;4913766;29;20527;-67
2021/04/19 07:20:51;;;;;;;33.53;18.73;;;;;;;;;;4913408;29;20056;-68
2021/04/19 07:23:17;;;;;;;29.35;20.20;;;;;;;;;;4896861;29;20048;-68
2021/04/19 07:25:44;;;;;;;28.58;18.33;;;;;;;;;;4911491;29;20047;-68
2021/04/19 07:28:12;;;;;;;27.33;18.77;;;;;;;;;;4913331;29;20048;-69
2021/04/19 07:30:39;;;;;;;25.95;17.63;;;;;;;;;;4912495;29;20052;-67
2021/04/19 07:33:05;;;;;;;27.63;18.65;;;;;;;;;;4925930;29;20131;-68
2021/04/19 07:35:33;;;;;;;28.13;20.20;;;;;;;;;;4929701;29;20055;-68
2021/04/19 07:38:01;;;;;;;29.35;18.55;;;;;;;;;;4932058;29;20126;-68
2021/04/19 07:40:34;;;;;;;28.48;19.63;;;;;;;;;;4931203;29;20064;-68
2021/04/19 07:43:27;;;;;;;26.40;18.42;;;;;;;;;;4921617;29;20059;-67
2021/04/19 07:46:22;;;;;;;30.70;19.13;;;;;;;;;;4927488;29;20200;-72
2021/04/19 07:48:51;;;;;;;32.40;18.58;;;;;;;;;;4920905;29;20538;-70
2021/04/19 07:51:25;;;;;;;29.83;19.95;;;;;;;;;;4936745;29;20059;-72
2021/04/19 07:54:11;;;;;;;32.72;18.65;;;;;;;;;;4939336;29;20110;-71
2021/04/19 07:56:43;;;;;;;31.10;19.25;;;;;;;;;;4934346;29;20582;-69
2021/04/19 07:59:24;;;;;;;29.88;19.40;;;;;;;;;;4935577;29;20048;-69
2021/04/19 08:02:02;;;;;;;29.15;18.83;;;;;;;;;;4935260;29;20060;-69
2021/04/19 08:04:30;;;;;;;25.92;18.17;;;;;;;;;;4932552;29;20131;-67
2021/04/19 08:06:57;;;;;;;25.48;17.45;;;;;;;;;;4939449;29;20051;-67
2021/04/19 08:09:28;;;;;;;26.65;18.83;;;;;;;;;;4933152;29;20043;-67
2021/04/19 08:11:58;;;;;;;27.27;17.13;;;;;;;;;;4934735;29;20111;-70
2021/04/19 08:14:31;;;;;;;22.92;16.83;;;;;;;;;;4935766;29;20051;-70
2021/04/19 08:17:03;;;;;;;;;;;;;;;;;;4934257;29;20051;-70
2021/04/19 08:19:32;;;;;;;24.67;17.40;;;;;;;;;;4916116;29;20426;-66
2021/04/19 08:22:16;;;;;;;23.35;17.27;;;;;;;;;;4932566;29;20051;-67
2021/04/19 08:24:43;;;;;;;28.25;17.48;;;;;;;;;;4933907;29;20154;-67
2021/04/19 08:27:20;;;;;;;21.92;16.13;;;;;;;;;;4933503;29;20048;-67
2021/04/19 08:29:49;;;;;;;23.40;17.65;;;;;;;;;;4932446;29;20079;-67
2021/04/19 08:32:16;;;;;;;23.75;16.83;;;;;;;;;;4932605;29;20047;-66
2021/04/19 08:34:43;;;;;;;24.17;17.27;;;;;;;;;;4930846;29;20051;-70
2021/04/19 08:37:11;;;;;;;24.73;17.15;;;;;;;;;;4933864;29;20569;-71
2021/04/19 08:39:38;;;;;;;24.48;17.02;;;;;;;;;;4934932;29;20052;-65
2021/04/19 08:42:17;;;;;;;33.10;18.70;;;;;;;;;;4917214;29;20059;-66
2021/04/19 08:44:44;;;;;;;26.45;17.92;;;;;;;;;;4916746;29;20111;-66
2021/04/19 08:47:14;;;;;;;30.02;19.60;;;;;;;;;;4912470;29;20126;-66
2021/04/19 08:49:40;;;;;;;25.55;18.50;;;;;;;;;;4927528;29;20052;-68
2021/04/19 08:52:06;;;;;;;27.58;18.88;;;;;;;;;;4901117;29;20047;-66
2021/04/19 08:54:32;;;;;;;28.45;18.63;;;;;;;;;;4929793;29;20056;-66
2021/04/19 08:56:58;;;;;;;34.55;20.98;;;;;;;;;;4909465;29;20052;-66
2021/04/19 08:59:31;;;;;;;30.95;20.95;;;;;;;;;;4925796;29;20081;-66
2021/04/19 09:01:57;;;;;;;28.40;19.08;;;;;;;;;;4931254;29;20106;-66
2021/04/19 09:04:24;;;;;;;28.75;19.65;;;;;;;;;;4894709;29;20051;-66
2021/04/19 09:06:55;;;;;;;32.80;20.52;;;;;;;;;;4928632;29;20059;-66
2021/04/19 09:09:40;;;;;;;26.63;19.08;;;;;;;;;;4911138;29;20059;-66
2021/04/19 09:12:09;;;;;;;25.55;18.63;;;;;;;;;;4930057;29;20048;-66
2021/04/19 09:14:37;;;;;;;30.77;19.98;;;;;;;;;;4931497;29;20098;-69
2021/04/19 09:17:03;;;;;;;26.40;18.77;;;;;;;;;;4916364;29;20051;-71
2021/04/19 09:19:30;;;;;;;26.52;19.48;;;;;;;;;;4932424;29;20056;-69
2021/04/19 09:22:06;;;;;;;25.73;17.15;;;;;;;;;;4934103;29;20133;-70
2021/04/19 09:24:53;;;;;;;23.38;17.30;;;;;;;;;;4931290;29;20047;-71
2021/04/19 09:27:41;;;;;;;27.13;17.05;;;;;;;;;;4909515;29;20051;-70
2021/04/19 09:30:23;;;;;;;26.92;16.02;;;;;;;;;;4933012;29;20107;-69
2021/04/19 09:33:01;;;;;;;25.42;17.83;;;;;;;;;;4934193;29;20051;-70
2021/04/19 09:35:44;;;;;;;25.55;16.95;;;;;;;;;;4930934;29;20051;-69
2021/04/19 09:38:16;;;;;;;24.30;17.00;;;;;;;;;;4934123;29;20103;-70
2021/04/19 09:40:46;;;;;;;25.75;16.98;;;;;;;;;;4929181;29;20103;-70
2021/04/19 09:43:13;;;;;;;27.70;18.00;;;;;;;;;;4934222;29;20056;-69
2021/04/19 09:45:44;;;;;;;25.83;16.80;;;;;;;;;;4932675;29;20067;-68
2021/04/19 09:48:28;;;;;;;27.70;18.45;;;;;;;;;;4933839;29;20466;-69
2021/04/19 09:50:59;;;;;;;25.48;16.42;;;;;;;;;;4930586;29;20090;-69
2021/04/19 09:53:25;;;;;;;24.50;17.15;;;;;;;;;;4933806;29;20047;-70
2021/04/19 09:55:58;;;;;;;24.05;18.02;;;;;;;;;;4899363;29;20059;-74
2021/04/19 09:58:24;;;;;;;23.77;17.27;;;;;;;;;;4916350;29;20048;-73
2021/04/19 10:00:54;;;;;;;28.52;18.50;;;;;;;;;;4908325;29;20047;-73
2021/04/19 10:03:23;;;;;;;28.38;18.60;;;;;;;;;;4917332;29;20043;-72
2021/04/19 10:05:57;;;;;;;25.60;17.90;;;;;;;;;;4927156;29;20139;-72
2021/04/19 10:08:25;;;;;;;25.25;18.15;;;;;;;;;;4901266;29;20048;-69
2021/04/19 10:10:52;;;;;;;22.85;16.70;;;;;;;;;;4932792;29;20485;-70
2021/04/19 10:13:37;;;;;;;24.13;18.02;;;;;;;;;;4933418;29;20123;-73
2021/04/19 10:16:12;;;;;;;28.10;18.17;;;;;;;;;;4906379;29;20052;-71
2021/04/19 10:18:43;;;;;;;25.55;17.55;;;;;;;;;;4911622;29;20044;-74
2021/04/19 10:21:21;;;;;;;24.52;17.20;;;;;;;;;;4945609;23;20099;-77
2021/04/19 10:23:49;;;;;;;24.52;17.48;;;;;;;;;;4939577;29;20055;-77
2021/04/19 10:26:15;;;;;;;25.58;17.77;;;;;;;;;;4934157;29;20047;-76
2021/04/19 10:28:45;;;;;;;25.05;16.55;;;;;;;;;;4934444;29;20087;-76
2021/04/19 10:31:16;;;;;;;26.85;17.55;;;;;;;;;;4938553;28;20054;-76
2021/04/19 10:33:45;;;;;;;25.00;16.95;;;;;;;;;;4931974;29;20511;-77
2021/04/19 10:36:17;;;;;;;26.08;17.48;;;;;;;;;;4936604;29;20101;-77
2021/04/19 10:38:49;;;;;;;23.55;16.38;;;;;;;;;;4928495;29;20066;-77
2021/04/19 10:41:16;;;;;;;26.23;16.83;;;;;;;;;;4961376;23;20356;-74
2021/04/19 10:43:43;;;;;;;25.15;17.30;;;;;;;;;;4918434;29;20307;-73
2021/04/19 10:46:24;;;;;;;25.35;17.40;;;;;;;;;;4942210;29;20055;-70
2021/04/19 10:48:54;;;;;;;22.42;16.63;;;;;;;;;;4918750;29;20063;-73
2021/04/19 10:51:23;;;;;;;26.10;17.83;;;;;;;;;;4938287;29;20462;-71
2021/04/19 10:53:49;;;;;;;27.80;18.02;;;;;;;;;;4920241;29;20111;-73
2021/04/19 10:56:25;;;;;;;28.38;18.67;;;;;;;;;;4920008;29;20520;-73
2021/04/19 10:58:53;;;;;;;27.08;17.63;;;;;;;;;;4921205;29;20052;-72
2021/04/19 11:01:31;;;;;;;30.23;18.45;;;;;;;;;;4926204;29;20048;-74
2021/04/19 11:04:12;;;;;;;27.35;18.58;;;;;;;;;;4924527;29;20048;-76
2021/04/19 11:06:39;;;;;;;26.95;17.00;;;;;;;;;;4896825;29;20067;-76
2021/04/19 11:09:26;;;;;;;25.73;18.13;;;;;;;;;;4917234;29;20507;-75
2021/04/19 11:11:57;;;;;;;24.52;17.30;;;;;;;;;;4930392;29;20055;-76
2021/04/19 11:14:41;;;;;;;29.88;17.70;;;;;;;;;;4914736;29;20418;-76
2021/04/19 11:17:08;;;;;;;29.17;18.63;;;;;;;;;;4898265;29;20136;-76
2021/04/19 11:19:44;;;;;;;25.75;18.73;;;;;;;;;;4918963;29;20107;-76
2021/04/19 11:22:28;;;;;;;26.95;17.55;;;;;;;;;;4921963;29;20066;-76
2021/04/19 11:25:14;;;;;;;26.85;18.73;;;;;;;;;;4908066;29;20047;-75
2021/04/19 11:27:40;;;;;;;27.02;19.02;;;;;;;;;;4917985;29;20056;-73
2021/04/19 11:30:27;;;;;;;26.27;18.67;;;;;;;;;;4916184;29;20090;-73
2021/04/19 11:33:12;;;;;;;27.58;19.38;;;;;;;;;;4922001;29;20616;-73
2021/04/19 11:35:41;;;;;;;30.15;20.13;;;;;;;;;;4920283;29;20123;-73
2021/04/19 11:38:09;;;;;;;27.23;18.58;;;;;;;;;;4919703;29;20468;-74
2021/04/19 11:40:39;;;;;;;28.00;18.88;;;;;;;;;;4921453;29;20487;-73
2021/04/19 11:43:19;;;;;;;25.45;18.02;;;;;;;;;;4924234;29;20481;-73
2021/04/19 11:45:46;;;;;;;25.17;18.15;;;;;;;;;;4919436;29;20476;-71
2021/04/19 11:48:15;;;;;;;30.90;19.70;;;;;;;;;;4921573;29;20058;-72
2021/04/19 11:50:43;;;;;;;26.90;19.33;;;;;;;;;;4919544;29;20115;-69
2021/04/19 11:53:09;;;;;;;28.48;20.08;;;;;;;;;;4920754;29;20048;-71
2021/04/19 11:55:35;;;;;;;30.67;20.30;;;;;;;;;;4918676;29;20048;-71
2021/04/19 11:58:01;;;;;;;31.63;20.98;;;;;;;;;;4923869;29;20052;-72
2021/04/19 12:00:28;;;;;;;33.72;20.50;;;;;;;;;;4918958;29;20044;-72
2021/04/19 12:02:54;;;;;;;29.77;20.65;;;;;;;;;;4921338;29;20087;-76
2021/04/19 12:05:20;;;;;;;31.33;20.17;;;;;;;;;;4921411;29;20494;-70
2021/04/19 12:07:46;;;;;;;25.65;19.27;;;;;;;;;;4927254;29;20098;-71
2021/04/19 12:10:13;;;;;;;27.20;20.52;;;;;;;;;;4919897;29;20059;-71
2021/04/19 12:12:39;;;;;;;31.55;21.27;;;;;;;;;;4921162;29;20114;-72
2021/04/19 12:15:06;;;;;;;27.65;19.67;;;;;;;;;;4919509;29;20143;-71
2021/04/19 12:17:32;;;;;;;30.50;18.80;;;;;;;;;;4919539;29;20050;-74
2021/04/19 12:19:58;;;;;;;27.55;20.38;;;;;;;;;;4918911;29;20048;-73
2021/04/19 12:22:24;;;;;;;32.65;21.60;;;;;;;;;;4920762;29;20403;-70
2021/04/19 12:24:50;;;;;;;28.23;19.00;;;;;;;;;;4922195;29;20060;-72
2021/04/19 12:27:16;;;;;;;26.85;19.80;;;;;;;;;;4918488;29;20119;-72
2021/04/19 12:29:43;;;;;;;29.83;19.00;;;;;;;;;;4918877;29;20056;-72
2021/04/19 12:32:09;;;;;;;26.42;18.73;;;;;;;;;;4927990;29;20055;-75
2021/04/19 12:34:35;;;;;;;25.63;18.45;;;;;;;;;;4925311;29;20107;-73
2021/04/19 12:37:01;;;;;;;26.45;17.85;;;;;;;;;;4922895;29;20506;-74
2021/04/19 12:39:28;;;;;;;27.98;18.98;;;;;;;;;;4922817;29;20406;-74
2021/04/19 12:41:54;;;;;;;26.52;17.05;;;;;;;;;;4923276;29;20099;-73
2021/04/19 12:44:24;;;;;;;23.63;16.55;;;;;;;;;;4924582;29;20052;-73
2021/04/19 12:46:53;;;;;;;23.33;17.98;;;;;;;;;;4924415;29;20047;-76
2021/04/19 12:49:21;;;;;;;23.95;16.70;;;;;;;;;;4909001;29;20082;-74
2021/04/19 12:51:48;;;;;;;23.42;16.35;;;;;;;;;;4914394;29;20056;-72
2021/04/19 12:54:14;;;;;;;22.58;16.10;;;;;;;;;;4918745;29;20054;-76
2021/04/19 12:56:41;;;;;;;22.00;15.95;;;;;;;;;;4924363;29;20052;-73
2021/04/19 12:59:07;;;;;;;23.85;16.63;;;;;;;;;;4925544;29;20071;-77
2021/04/19 13:01:34;;;;;;;22.58;16.13;;;;;;;;;;4915422;29;20058;-74
2021/04/19 13:04:05;;;;;;;23.02;15.80;;;;;;;;;;4924112;29;20056;-76
2021/04/19 13:06:31;;;;;;;21.65;16.52;;;;;;;;;;4922981;29;20383;-74
2021/04/19 13:08:57;;;;;;;23.10;16.85;;;;;;;;;;4923293;29;20052;-75
2021/04/19 13:11:24;;;;;;;21.35;16.10;;;;;;;;;;4923746;29;20110;-77
2021/04/19 13:13:50;;;;;;;20.80;15.60;;;;;;;;;;4922503;29;20107;-74
2021/04/19 13:16:16;;;;;;;19.15;15.57;;;;;;;;;;4921619;29;20052;-74
2021/04/19 13:18:42;;;;;;;23.63;16.08;;;;;;;;;;4926828;29;20083;-74
2021/04/19 13:21:09;;;;;;;22.35;15.18;;;;;;;;;;4907917;29;20487;-73
2021/04/19 13:23:35;;;;;;;19.67;15.57;;;;;;;;;;4922045;29;20111;-72
2021/04/19 13:26:02;;;;;;;21.50;15.50;;;;;;;;;;4923638;29;20055;-74
2021/04/19 13:28:28;;;;;;;20.42;14.65;;;;;;;;;;4924918;29;20083;-72
2021/04/19 13:30:54;;;;;;;19.98;15.75;;;;;;;;;;4923730;29;20506;-73
2021/04/19 13:33:20;;;;;;;20.15;13.25;;;;;;;;;;4922664;29;20115;-72
2021/04/19 13:35:46;;;;;;;16.30;13.05;;;;;;;;;;4922548;29;20066;-73
2021/04/19 13:38:12;;;;;;;20.08;13.40;;;;;;;;;;4921945;29;20068;-73
2021/04/19 13:40:39;;;;;;;16.00;11.25;;;;;;;;;;4923634;29;20076;-72
2021/04/19 13:43:05;;;;;;;18.90;13.27;;;;;;;;;;4921375;29;20060;-71
2021/04/19 13:45:31;;;;;;;20.75;14.23;;;;;;;;;;4922968;29;20051;-73
2021/04/19 13:47:57;;;;;;;18.08;13.77;;;;;;;;;;4921601;29;20491;-76
2021/04/19 13:50:23;;;;;;;16.65;13.27;;;;;;;;;;4917568;29;20115;-73
2021/04/19 13:52:49;;;;;;;17.08;13.00;;;;;;;;;;4921542;29;20542;-72
2021/04/19 13:55:16;;;;;;;19.48;13.68;;;;;;;;;;4921960;29;20116;-75
2021/04/19 13:57:42;;;;;;;19.15;12.85;;;;;;;;;;4919465;29;20534;-75
2021/04/19 14:00:11;;;;;;;20.13;14.20;;;;;;;;;;4919531;29;20509;-75
2021/04/19 14:02:37;;;;;;;20.75;14.48;;;;;;;;;;4905581;29;20062;-75
2021/04/19 14:05:04;;;;;;;20.88;15.50;;;;;;;;;;4915597;29;20502;-74
2021/04/19 14:07:30;;;;;;;21.25;15.13;;;;;;;;;;4920435;29;20353;-73
2021/04/19 14:09:56;;;;;;;18.17;14.35;;;;;;;;;;4922042;29;20507;-74
2021/04/19 14:12:24;;;;;;;18.25;13.63;;;;;;;;;;4925462;29;20059;-73
2021/04/19 14:14:50;;;;;;;15.27;12.18;;;;;;;;;;4918799;29;20052;-74
2021/04/19 14:17:16;;;;;;;16.17;12.82;;;;;;;;;;4922689;29;20127;-73
2021/04/19 14:19:42;;;;;;;16.33;12.50;;;;;;;;;;4921650;29;20052;-73
2021/04/19 14:22:08;;;;;;;17.58;13.10;;;;;;;;;;4920930;29;20048;-73
2021/04/19 14:24:34;;;;;;;14.52;11.68;;;;;;;;;;4921976;29;20107;-73
2021/04/19 14:27:01;;;;;;;14.50;11.75;;;;;;;;;;4903346;29;20048;-73
2021/04/19 14:29:28;;;;;;;14.25;11.57;;;;;;;;;;4918927;29;20091;-74
2021/04/19 14:31:57;;;;;;;12.95;10.55;;;;;;;;;;4922522;29;20075;-72